createdAt,value
2019-03-08T00:00:54.998Z,3.60
2019-03-08T00:03:23.264Z,3.40
2019-03-08T00:05:51.551Z,3.23
2019-03-08T00:08:19.852Z,3.80
2019-03-08T00:10:48.222Z,3.60
2019-03-08T00:13:16.610Z,3.40
2019-03-08T00:15:44.915Z,3.80
2019-03-08T00:18:13.262Z,3.27
2019-03-08T00:20:41.520Z,3.47
2019-03-08T00:23:09.769Z,3.17
2019-03-08T00:25:38.018Z,3.80
2019-03-08T00:28:06.380Z,3.40
2019-03-08T00:30:34.701Z,3.80
2019-03-08T00:33:02.991Z,3.63
2019-03-08T00:35:31.379Z,3.10
2019-03-08T00:37:59.730Z,3.23
2019-03-08T00:40:28.073Z,3.83
2019-03-08T00:42:56.425Z,2.80
2019-03-08T00:45:24.736Z,3.20
2019-03-08T00:47:53.042Z,3.57
2019-03-08T00:50:21.378Z,3.27
2019-03-08T00:52:49.628Z,3.50
2019-03-08T00:55:17.894Z,3.20
2019-03-08T00:57:46.219Z,3.40
2019-03-08T01:00:22.370Z,3.40
2019-03-08T01:02:50.682Z,3.63
2019-03-08T01:05:18.938Z,3.70
2019-03-08T01:07:47.335Z,4.03
2019-03-08T01:10:21.078Z,3.83
2019-03-08T01:12:49.345Z,4.07
2019-03-08T01:15:18.075Z,4.37
2019-03-08T01:17:46.317Z,4.60
2019-03-08T01:20:20.684Z,4.53
2019-03-08T01:22:49.008Z,5.03
2019-03-08T01:25:18.739Z,5.23
2019-03-08T01:27:59.345Z,4.27
2019-03-08T01:30:27.719Z,4.83
2019-03-08T01:32:56.032Z,4.83
2019-03-08T01:35:24.281Z,5.33
2019-03-08T01:37:53.017Z,5.63
2019-03-08T01:40:21.387Z,5.43
2019-03-08T01:42:49.670Z,5.13
2019-03-08T01:45:17.929Z,6.07
2019-03-08T01:47:46.246Z,5.43
2019-03-08T01:50:14.493Z,6.17
2019-03-08T01:52:43.035Z,6.47
2019-03-08T01:55:11.293Z,5.67
2019-03-08T01:57:39.687Z,5.70
2019-03-08T02:00:14.408Z,6.43
2019-03-08T02:02:42.744Z,6.60
2019-03-08T02:05:10.992Z,6.70
2019-03-08T02:07:39.322Z,5.90
2019-03-08T02:10:12.788Z,6.93
2019-03-08T02:12:42.102Z,7.10
2019-03-08T02:15:12.714Z,6.70
2019-03-08T02:17:40.973Z,6.90
2019-03-08T02:20:14.533Z,7.17
2019-03-08T02:22:42.804Z,6.87
2019-03-08T02:25:11.906Z,7.43
2019-03-08T02:27:40.262Z,8.03
2019-03-08T02:30:13.501Z,7.13
2019-03-08T02:32:42.152Z,6.63
2019-03-08T02:35:10.527Z,7.30
2019-03-08T02:37:38.976Z,7.13
2019-03-08T02:40:32.121Z,7.33
2019-03-08T02:43:00.990Z,6.90
2019-03-08T02:45:29.308Z,6.40
2019-03-08T02:47:57.647Z,6.13
2019-03-08T02:50:25.885Z,6.77
2019-03-08T02:52:54.162Z,6.03
2019-03-08T02:55:22.441Z,5.53
2019-03-08T02:57:50.962Z,4.93
2019-03-08T03:00:19.491Z,5.40
2019-03-08T03:02:47.841Z,6.20
2019-03-08T03:05:16.092Z,6.13
2019-03-08T03:07:44.442Z,6.20
2019-03-08T03:10:13.669Z,6.43
2019-03-08T03:12:41.936Z,6.03
2019-03-08T03:15:14.325Z,5.67
2019-03-08T03:17:42.613Z,5.90
2019-03-08T03:20:13.410Z,5.10
2019-03-08T03:22:41.753Z,4.50
2019-03-08T03:25:12.027Z,4.73
2019-03-08T03:27:40.361Z,4.50
2019-03-08T03:30:14.279Z,4.20
2019-03-08T03:32:42.519Z,4.47
2019-03-08T03:35:10.855Z,4.50
2019-03-08T03:37:39.103Z,4.37
2019-03-08T03:40:13.731Z,5.03
2019-03-08T03:42:42.061Z,4.50
2019-03-08T03:45:12.316Z,4.67
2019-03-08T03:47:40.655Z,4.77
2019-03-08T03:50:12.827Z,4.90
2019-03-08T03:52:41.354Z,4.83
2019-03-08T03:55:14.443Z,5.27
2019-03-08T03:57:42.770Z,5.33
2019-03-08T04:00:19.718Z,5.00
2019-03-08T04:02:48.045Z,4.73
2019-03-08T04:05:16.383Z,5.30
2019-03-08T04:07:44.619Z,5.10
2019-03-08T04:10:14.439Z,5.00
2019-03-08T04:12:42.758Z,4.53
2019-03-08T04:15:13.751Z,3.80
2019-03-08T04:17:42.078Z,3.73
2019-03-08T04:20:13.414Z,4.33
2019-03-08T04:22:41.750Z,4.30
2019-03-08T04:25:11.318Z,4.10
2019-03-08T04:27:41.676Z,4.30
2019-03-08T04:30:21.852Z,4.30
2019-03-08T04:32:50.129Z,4.30
2019-03-08T04:35:18.421Z,4.07
2019-03-08T04:37:46.669Z,3.80
2019-03-08T04:40:14.939Z,3.40
2019-03-08T04:42:43.268Z,3.47
2019-03-08T04:45:16.559Z,3.40
2019-03-08T04:47:44.960Z,3.73
2019-03-08T04:50:15.071Z,3.57
2019-03-08T04:52:43.402Z,3.20
2019-03-08T04:55:16.675Z,3.23
2019-03-08T04:57:44.610Z,3.03
2019-03-08T05:00:14.570Z,3.53
2019-03-08T05:02:42.881Z,3.50
2019-03-08T05:05:11.213Z,3.00
2019-03-08T05:07:39.476Z,3.30
2019-03-08T05:10:10.875Z,3.70
2019-03-08T05:12:39.574Z,3.10
2019-03-08T05:15:07.920Z,4.10
2019-03-08T05:17:36.262Z,3.57
2019-03-08T05:20:06.515Z,4.53
2019-03-08T05:22:34.789Z,3.33
2019-03-08T05:25:04.185Z,3.10
2019-03-08T05:27:32.812Z,2.70
2019-03-08T05:30:01.135Z,2.37
2019-03-08T05:32:29.477Z,2.40
2019-03-08T05:34:57.743Z,2.50
2019-03-08T05:37:26.057Z,2.27
2019-03-08T05:39:54.340Z,2.13
2019-03-08T05:42:23.055Z,2.03
2019-03-08T05:44:51.360Z,2.20
2019-03-08T05:47:19.648Z,2.87
2019-03-08T05:49:47.894Z,2.90
2019-03-08T05:52:16.214Z,1.90
2019-03-08T05:54:44.487Z,3.20
2019-03-08T05:57:12.858Z,2.13
2019-03-08T05:59:41.111Z,2.30
2019-03-08T06:02:09.412Z,1.60
2019-03-08T06:04:37.818Z,1.40
2019-03-08T06:07:06.073Z,1.30
2019-03-08T06:09:34.331Z,1.10
2019-03-08T06:12:02.591Z,1.47
2019-03-08T06:14:31.021Z,1.87
2019-03-08T06:16:59.349Z,1.10
2019-03-08T06:19:27.630Z,1.30
2019-03-08T06:21:55.894Z,1.97
2019-03-08T06:24:24.163Z,1.37
2019-03-08T06:26:52.487Z,1.10
2019-03-08T06:29:20.814Z,2.27
2019-03-08T06:31:49.066Z,1.87
2019-03-08T06:34:17.408Z,1.87
2019-03-08T06:36:45.717Z,2.10
2019-03-08T06:39:13.975Z,1.77
2019-03-08T06:41:42.241Z,2.50
2019-03-08T06:44:10.516Z,3.27
2019-03-08T06:46:39.037Z,2.53
2019-03-08T06:49:07.381Z,4.03
2019-03-08T06:51:35.710Z,4.10
2019-03-08T06:54:03.986Z,2.13
2019-03-08T06:56:32.337Z,2.93
2019-03-08T06:59:02.222Z,2.10
2019-03-08T07:01:30.725Z,2.57
2019-03-08T07:03:59.081Z,2.70
2019-03-08T07:06:27.424Z,3.37
2019-03-08T07:08:55.795Z,2.23
2019-03-08T07:11:24.034Z,1.97
2019-03-08T07:13:52.293Z,2.07
2019-03-08T07:16:20.593Z,2.80
2019-03-08T07:18:48.935Z,2.60
2019-03-08T07:21:24.916Z,1.70
2019-03-08T07:23:57.612Z,2.40
2019-03-08T07:26:39.129Z,3.07
2019-03-08T07:29:11.781Z,3.00
2019-03-08T07:31:44.454Z,2.00
2019-03-08T07:34:20.616Z,4.20
2019-03-08T07:37:06.710Z,4.13
2019-03-08T07:39:48.921Z,3.03
2019-03-08T07:42:28.130Z,2.57
2019-03-08T07:45:01.056Z,3.77
2019-03-08T07:47:34.274Z,4.03
2019-03-08T07:50:04.188Z,3.67
2019-03-08T07:52:37.045Z,4.43
2019-03-08T07:55:08.957Z,4.27
2019-03-08T07:57:55.374Z,5.13
2019-03-08T08:00:40.537Z,4.53
2019-03-08T08:03:13.172Z,5.47
2019-03-08T08:05:58.543Z,5.07
2019-03-08T08:08:40.893Z,5.30
2019-03-08T08:11:17.437Z,5.37
2019-03-08T08:13:59.435Z,5.70
2019-03-08T08:16:47.718Z,5.33
2019-03-08T08:19:20.725Z,6.67
2019-03-08T08:22:05.677Z,7.93
2019-03-08T08:24:35.573Z,6.57
2019-03-08T08:27:08.576Z,5.93
2019-03-08T08:29:44.040Z,5.30
2019-03-08T08:32:25.813Z,5.60
2019-03-08T08:34:58.714Z,5.83
2019-03-08T08:37:34.642Z,5.30
2019-03-08T08:40:10.710Z,6.53
2019-03-08T08:42:40.650Z,6.10
2019-03-08T08:45:15.223Z,4.80
2019-03-08T08:48:01.453Z,4.93
2019-03-08T08:50:37.327Z,4.53
2019-03-08T08:53:10.408Z,4.90
2019-03-08T08:55:55.626Z,4.67
2019-03-08T08:58:37.362Z,5.20
2019-03-08T09:01:10.052Z,4.60
2019-03-08T09:03:56.564Z,3.97
2019-03-08T09:06:26.550Z,5.00
2019-03-08T09:09:02.597Z,4.30
2019-03-08T09:11:32.578Z,4.40
2019-03-08T09:14:17.681Z,4.33
2019-03-08T09:16:53.511Z,3.97
2019-03-08T09:19:23.486Z,3.90
2019-03-08T09:21:56.369Z,4.23
2019-03-08T09:24:26.413Z,4.73
2019-03-08T09:27:12.654Z,4.37
2019-03-08T09:29:48.580Z,4.23
2019-03-08T09:32:27.318Z,4.87
2019-03-08T09:35:06.139Z,4.47
2019-03-08T09:37:38.728Z,4.07
2019-03-08T09:40:28.578Z,4.03
2019-03-08T09:42:58.565Z,3.87
2019-03-08T09:45:34.450Z,3.43
2019-03-08T09:48:10.402Z,3.50
2019-03-08T09:50:46.524Z,3.50
2019-03-08T09:53:19.586Z,3.30
2019-03-08T09:56:01.598Z,3.83
2019-03-08T09:58:40.399Z,3.40
2019-03-08T10:01:19.359Z,3.40
2019-03-08T10:03:49.433Z,3.50
2019-03-08T10:06:22.215Z,4.00
2019-03-08T10:08:56.345Z,4.17
2019-03-08T10:11:27.579Z,4.17
2019-03-08T10:14:03.564Z,3.77
2019-03-08T10:16:33.608Z,4.03
2019-03-08T10:19:12.567Z,3.70
2019-03-08T10:21:42.535Z,3.87
2019-03-08T10:24:30.824Z,4.23
2019-03-08T10:27:00.734Z,4.50
2019-03-08T10:29:31.022Z,4.23
2019-03-08T10:32:00.921Z,3.40
2019-03-08T10:34:33.623Z,3.13
2019-03-08T10:37:03.617Z,3.37
2019-03-08T10:39:33.638Z,2.97
2019-03-08T10:42:03.623Z,2.97
2019-03-08T10:44:36.064Z,2.40
2019-03-08T10:47:22.361Z,2.23
2019-03-08T10:49:55.296Z,3.07
2019-03-08T10:52:36.011Z,2.93
2019-03-08T10:55:08.138Z,2.63
2019-03-08T10:57:43.919Z,2.70
2019-03-08T11:00:21.829Z,2.93
2019-03-08T11:02:51.729Z,2.47
2019-03-08T11:05:24.649Z,3.40
2019-03-08T11:08:08.353Z,3.40
2019-03-08T11:10:55.040Z,3.40
2019-03-08T11:13:27.909Z,3.00
2019-03-08T11:15:57.914Z,3.20
2019-03-08T11:18:27.855Z,3.63
2019-03-08T11:20:58.056Z,3.57
2019-03-08T11:23:33.719Z,3.47
2019-03-08T11:26:03.725Z,4.03
2019-03-08T11:28:33.635Z,3.63
2019-03-08T11:31:12.288Z,3.80
2019-03-08T11:33:48.006Z,3.33
2019-03-08T11:36:23.918Z,3.10
2019-03-08T11:38:56.818Z,3.30
2019-03-08T11:41:26.764Z,3.40
2019-03-08T11:43:59.456Z,3.33
2019-03-08T11:46:29.373Z,3.27
2019-03-08T11:49:02.049Z,2.90
2019-03-08T11:51:34.895Z,3.30
2019-03-08T11:54:08.219Z,3.43
2019-03-08T11:56:56.612Z,3.37
2019-03-08T11:59:44.645Z,3.77
2019-03-08T12:02:14.566Z,3.97
2019-03-08T12:04:50.373Z,3.67
2019-03-08T12:07:29.718Z,3.23
2019-03-08T12:09:59.973Z,3.80
2019-03-08T12:12:41.872Z,4.03
2019-03-08T12:15:27.184Z,3.53
2019-03-08T12:18:02.899Z,4.40
2019-03-08T12:20:35.486Z,4.13
2019-03-08T12:23:11.256Z,3.90
2019-03-08T12:25:41.229Z,4.37
2019-03-08T12:28:14.082Z,5.00
2019-03-08T12:30:59.019Z,3.83
2019-03-08T12:33:28.975Z,3.83
2019-03-08T12:36:17.007Z,5.30
2019-03-08T12:38:56.073Z,4.40
2019-03-08T12:41:38.186Z,4.30
2019-03-08T12:44:08.097Z,4.30
2019-03-08T12:46:38.026Z,4.73
2019-03-08T12:49:08.032Z,4.27
2019-03-08T12:51:38.039Z,5.37
2019-03-08T12:54:10.800Z,5.10
2019-03-08T12:56:43.721Z,4.77
2019-03-08T12:59:31.164Z,4.50
2019-03-08T13:02:07.250Z,4.23
2019-03-08T13:04:40.518Z,4.20
2019-03-08T13:07:16.176Z,3.93
2019-03-08T13:09:50.555Z,5.53
2019-03-08T13:12:18.925Z,4.87
2019-03-08T13:14:47.265Z,4.90
2019-03-08T13:17:15.893Z,4.57
2019-03-08T13:19:44.237Z,3.90
2019-03-08T13:22:12.549Z,3.57
2019-03-08T13:24:40.840Z,3.93
2019-03-08T13:27:09.111Z,3.50
2019-03-08T13:29:37.485Z,4.00
2019-03-08T13:32:05.766Z,3.07
2019-03-08T13:34:34.041Z,3.87
2019-03-08T13:37:02.289Z,3.60
2019-03-08T13:39:30.656Z,3.57
2019-03-08T13:41:58.948Z,3.43
2019-03-08T13:44:27.307Z,4.27
2019-03-08T13:46:55.636Z,3.77
2019-03-08T13:49:24.222Z,3.67
2019-03-08T13:51:52.569Z,3.80
2019-03-08T13:54:20.845Z,4.40
2019-03-08T13:56:49.118Z,4.00
2019-03-08T13:59:17.405Z,3.67
2019-03-08T14:01:45.668Z,3.77
2019-03-08T14:04:14.114Z,4.80
2019-03-08T14:06:42.446Z,4.23
2019-03-08T14:09:10.755Z,4.13
2019-03-08T14:11:39.090Z,4.07
2019-03-08T14:14:07.347Z,3.43
2019-03-08T14:16:35.710Z,4.00
2019-03-08T14:19:04.391Z,3.83
2019-03-08T14:21:32.705Z,3.07
2019-03-08T14:24:01.066Z,3.90
2019-03-08T14:26:29.416Z,3.13
2019-03-08T14:28:57.671Z,3.33
2019-03-08T14:31:27.597Z,2.97
2019-03-08T14:33:56.052Z,3.23
2019-03-08T14:36:24.386Z,2.97
2019-03-08T14:38:52.725Z,2.73
2019-03-08T14:41:31.837Z,3.50
2019-03-08T14:44:01.932Z,2.70
2019-03-08T14:46:31.878Z,2.10
2019-03-08T14:49:00.323Z,2.27
2019-03-08T14:51:28.659Z,2.60
2019-03-08T14:53:57.030Z,2.40
2019-03-08T14:56:25.309Z,3.03
2019-03-08T14:58:53.994Z,3.50
2019-03-08T15:01:22.346Z,3.00
2019-03-08T15:03:50.725Z,3.43
2019-03-08T15:06:19.049Z,3.13
2019-03-08T15:08:47.309Z,2.73
2019-03-08T15:11:15.570Z,3.47
2019-03-08T15:13:43.912Z,2.83
2019-03-08T15:16:13.222Z,3.40
2019-03-08T15:18:41.560Z,2.40
2019-03-08T15:21:09.844Z,2.17
2019-03-08T15:23:38.102Z,2.90
2019-03-08T15:26:06.412Z,3.13
2019-03-08T15:28:34.755Z,3.20
2019-03-08T15:31:03.099Z,2.97
2019-03-08T15:33:31.542Z,2.93
2019-03-08T15:35:59.865Z,3.03
2019-03-08T15:38:28.136Z,2.83
2019-03-08T15:40:57.370Z,3.00
2019-03-08T15:43:26.635Z,3.47
2019-03-08T15:45:54.965Z,2.83
2019-03-08T15:48:23.254Z,2.67
2019-03-08T15:50:51.628Z,3.40
2019-03-08T15:53:20.054Z,2.70
2019-03-08T15:55:52.924Z,3.23
2019-03-08T15:58:18.449Z,3.20
2019-03-08T16:00:46.860Z,3.73
2019-03-08T16:03:15.178Z,3.03
2019-03-08T16:05:43.512Z,3.30
2019-03-08T16:08:12.404Z,2.93
2019-03-08T16:10:40.829Z,2.70
2019-03-08T16:13:09.120Z,3.10
2019-03-08T16:15:37.500Z,3.83
2019-03-08T16:18:05.776Z,3.30
2019-03-08T16:20:37.442Z,3.30
2019-03-08T16:23:06.560Z,2.70
2019-03-08T16:25:34.564Z,2.77
2019-03-08T16:28:02.857Z,2.90
2019-03-08T16:30:38.337Z,3.03
2019-03-08T16:33:17.850Z,2.90
2019-03-08T16:35:51.760Z,3.13
2019-03-08T16:38:24.439Z,3.40
2019-03-08T16:40:57.230Z,2.87
2019-03-08T16:43:30.150Z,2.90
2019-03-08T16:46:02.947Z,2.53
2019-03-08T16:48:33.036Z,3.67
2019-03-08T16:51:03.106Z,3.30
2019-03-08T16:53:46.250Z,2.70
2019-03-08T16:56:19.170Z,3.23
2019-03-08T16:58:54.904Z,2.90
2019-03-08T17:01:41.939Z,3.20
2019-03-08T17:04:14.986Z,3.83
2019-03-08T17:06:50.863Z,4.03
2019-03-08T17:09:24.364Z,3.33
2019-03-08T17:12:00.111Z,2.97
2019-03-08T17:14:30.118Z,4.20
2019-03-08T17:17:09.134Z,2.70
2019-03-08T17:19:51.252Z,3.53
2019-03-08T17:22:33.225Z,3.00
2019-03-08T17:25:03.334Z,3.83
2019-03-08T17:27:36.186Z,2.63
2019-03-08T17:30:18.184Z,2.67
2019-03-08T17:33:03.304Z,2.70
2019-03-08T17:35:42.419Z,2.87
2019-03-08T17:38:18.139Z,2.80
2019-03-08T17:41:03.412Z,3.13
2019-03-08T17:43:36.159Z,4.77
2019-03-08T17:46:21.404Z,3.27
2019-03-08T17:48:54.334Z,2.43
2019-03-08T17:51:30.177Z,2.77
2019-03-08T17:54:00.061Z,2.67
2019-03-08T17:56:42.014Z,2.43
2019-03-08T17:59:21.361Z,2.87
2019-03-08T18:02:06.275Z,4.63
2019-03-08T18:04:52.186Z,3.03
2019-03-08T18:07:24.837Z,2.90
2019-03-08T18:10:00.517Z,2.80
2019-03-08T18:12:49.731Z,3.23
2019-03-08T18:15:19.708Z,3.03
2019-03-08T18:17:55.718Z,3.30
2019-03-08T18:20:37.739Z,3.93
2019-03-08T18:23:10.743Z,3.77
2019-03-08T18:25:40.684Z,5.87
2019-03-08T18:28:10.595Z,5.53
2019-03-08T18:30:40.497Z,3.73
2019-03-08T18:33:10.686Z,3.23
2019-03-08T18:35:40.586Z,3.20
2019-03-08T18:38:19.875Z,3.33
2019-03-08T18:40:56.042Z,9.07
2019-03-08T18:43:28.819Z,4.33
2019-03-08T18:46:04.654Z,5.47
2019-03-08T18:48:34.678Z,6.70
2019-03-08T18:51:19.791Z,4.13
2019-03-08T18:53:49.885Z,3.67
2019-03-08T18:56:25.880Z,3.57
2019-03-08T18:59:01.928Z,3.43
2019-03-08T19:01:48.216Z,2.63
2019-03-08T19:04:21.046Z,3.30
2019-03-08T19:06:53.437Z,3.87
2019-03-08T19:09:23.726Z,3.43
2019-03-08T19:11:53.626Z,3.20
2019-03-08T19:14:26.481Z,3.40
2019-03-08T19:17:01.843Z,3.23
2019-03-08T19:19:32.193Z,4.07
2019-03-08T19:22:02.142Z,3.73
2019-03-08T19:24:32.646Z,3.73
2019-03-08T19:27:08.592Z,3.07
2019-03-08T19:29:55.196Z,2.43
2019-03-08T19:32:25.186Z,3.20
2019-03-08T19:35:07.288Z,3.57
2019-03-08T19:37:55.839Z,3.37
2019-03-08T19:40:31.717Z,2.90
2019-03-08T19:43:04.632Z,3.43
2019-03-08T19:45:43.972Z,3.63
2019-03-08T19:48:23.077Z,3.60
2019-03-08T19:50:55.759Z,3.57
2019-03-08T19:53:28.401Z,3.57
2019-03-08T19:56:04.054Z,3.70
2019-03-08T19:58:33.939Z,4.70
2019-03-08T20:01:10.101Z,3.70
2019-03-08T20:03:46.299Z,4.03
2019-03-08T20:06:22.235Z,4.17
2019-03-08T20:08:58.192Z,3.50
2019-03-08T20:11:28.164Z,4.83
2019-03-08T20:13:58.086Z,5.40
2019-03-08T20:16:33.754Z,4.17
2019-03-08T20:19:12.490Z,5.93
2019-03-08T20:21:58.676Z,5.67
2019-03-08T20:24:40.850Z,4.07
2019-03-08T20:27:19.650Z,3.87
2019-03-08T20:29:52.529Z,6.87
2019-03-08T20:32:25.135Z,3.80
2019-03-08T20:35:04.268Z,4.80
2019-03-08T20:37:34.182Z,5.17
2019-03-08T20:40:06.281Z,3.93
2019-03-08T20:42:48.392Z,3.93
2019-03-08T20:45:21.441Z,4.40
2019-03-08T20:47:49.806Z,3.80
2019-03-08T20:50:18.084Z,3.93
2019-03-08T20:52:46.365Z,3.87
2019-03-08T20:55:14.618Z,3.30
2019-03-08T20:57:42.974Z,4.80
2019-03-08T21:00:16.183Z,5.23
2019-03-08T21:02:44.522Z,4.50
2019-03-08T21:05:12.904Z,4.63
2019-03-08T21:07:41.217Z,4.07
2019-03-08T21:10:14.030Z,3.40
2019-03-08T21:12:42.289Z,2.70
2019-03-08T21:15:12.666Z,5.30
2019-03-08T21:17:40.960Z,4.40
2019-03-08T21:20:10.887Z,4.87
2019-03-08T21:22:39.164Z,7.07
2019-03-08T21:25:10.338Z,9.30
2019-03-08T21:27:38.738Z,9.33
2019-03-08T21:30:17.374Z,6.70
2019-03-08T21:32:45.666Z,5.80
2019-03-08T21:35:14.133Z,4.17
2019-03-08T21:37:42.764Z,4.27
2019-03-08T21:40:12.266Z,3.60
2019-03-08T21:42:40.633Z,3.90
2019-03-08T21:45:14.163Z,3.83
2019-03-08T21:47:42.595Z,3.70
2019-03-08T21:50:13.395Z,4.30
2019-03-08T21:52:41.725Z,4.20
2019-03-08T21:55:10.022Z,4.13
2019-03-08T21:57:38.301Z,4.37
2019-03-08T22:00:17.899Z,4.63
2019-03-08T22:02:46.276Z,4.30
2019-03-08T22:05:16.138Z,4.63
2019-03-08T22:07:44.536Z,4.27
2019-03-08T22:10:20.530Z,4.40
2019-03-08T22:12:48.862Z,4.90
2019-03-08T22:15:17.186Z,4.10
2019-03-08T22:17:45.510Z,4.73
2019-03-08T22:20:13.811Z,4.03
2019-03-08T22:22:42.110Z,5.80
2019-03-08T22:25:12.141Z,4.87
2019-03-08T22:27:40.785Z,5.07
2019-03-08T22:30:15.012Z,6.00
2019-03-08T22:32:43.334Z,4.87
2019-03-08T22:35:11.609Z,5.00
2019-03-08T22:37:39.942Z,4.23
2019-03-08T22:40:09.326Z,4.47
2019-03-08T22:42:37.674Z,4.60
2019-03-08T22:45:07.173Z,4.33
2019-03-08T22:47:35.475Z,3.67
2019-03-08T22:50:06.557Z,4.60
2019-03-08T22:52:35.881Z,4.70
2019-03-08T22:55:06.559Z,5.07
2019-03-08T22:57:34.819Z,6.00
2019-03-08T23:00:03.631Z,4.53
2019-03-08T23:02:32.035Z,4.30
2019-03-08T23:05:00.384Z,4.30
2019-03-08T23:07:28.837Z,4.50
2019-03-08T23:09:57.198Z,3.77
2019-03-08T23:12:25.565Z,4.20
2019-03-08T23:14:53.922Z,3.53
2019-03-08T23:17:22.241Z,4.00
2019-03-08T23:19:50.824Z,4.27
2019-03-08T23:22:19.162Z,4.50
2019-03-08T23:24:47.551Z,5.43
2019-03-08T23:27:23.661Z,3.93
2019-03-08T23:29:53.781Z,3.30
2019-03-08T23:32:26.698Z,4.93
2019-03-08T23:34:55.074Z,3.87
2019-03-08T23:37:23.350Z,4.40
2019-03-08T23:39:51.695Z,3.73
2019-03-08T23:42:19.991Z,3.90
2019-03-08T23:44:48.350Z,4.03
2019-03-08T23:47:16.730Z,4.00
2019-03-08T23:49:45.010Z,4.10
2019-03-08T23:52:13.333Z,3.77
2019-03-08T23:54:41.610Z,3.73
2019-03-08T23:57:09.878Z,3.90
2019-03-08T23:59:38.143Z,4.07
